Time;durP1;ratioP1;P1;durP2;ratioP2;P2;SDS_P1;SDS_P2;PMS_P1;PMS_P2;Temp;Humidity;BMP_temperature;BMP_pressure;BME280_temperature;BME280_humidity;BME280_pressure;Samples;Min_cycle;Max_cycle;Signal;HPM_P1;HPM_P2
2023/05/22 00:00:47;;;;;;;10.30;9.40;;;14.30;99.90;;;;;;5093423;28;20378;-79
2023/05/22 00:03:13;;;;;;;10.57;9.10;;;14.30;99.90;;;;;;5075511;28;20386;-79
2023/05/22 00:05:39;;;;;;;10.07;9.07;;;14.30;99.90;;;;;;5075298;28;20395;-79
2023/05/22 00:08:10;;;;;;;10.80;9.70;;;14.30;99.90;;;;;;5058853;28;20444;-79
2023/05/22 00:10:38;;;;;;;11.13;9.93;;;14.20;99.90;;;;;;5063520;28;20965;-79
2023/05/22 00:13:04;;;;;;;11.38;10.27;;;14.20;99.90;;;;;;5054776;28;20400;-79
2023/05/22 00:15:30;;;;;;;11.02;9.90;;;14.20;99.90;;;;;;5054735;28;20461;-79
2023/05/22 00:17:56;;;;;;;10.38;9.38;;;14.30;99.90;;;;;;5085762;28;20402;-79
2023/05/22 00:20:22;;;;;;;14.20;10.23;;;14.30;99.90;;;;;;5085811;28;20391;-79
2023/05/22 00:22:48;;;;;;;10.80;9.70;;;14.30;99.90;;;;;;5072448;28;20441;-79
2023/05/22 00:25:17;;;;;;;11.35;10.25;;;14.20;99.90;;;;;;5055305;28;20407;-79
2023/05/22 00:27:43;;;;;;;10.85;9.85;;;14.20;99.90;;;;;;5074056;28;20477;-79
2023/05/22 00:30:09;;;;;;;11.20;9.93;;;14.10;99.90;;;;;;5081255;28;20444;-79
2023/05/22 00:32:34;;;;;;;11.18;10.07;;;14.10;99.90;;;;;;5094236;28;20400;-79
2023/05/22 00:35:00;;;;;;;10.98;9.98;;;14.00;99.90;;;;;;5071676;28;20395;-80
2023/05/22 00:37:26;;;;;;;10.07;9.07;;;14.00;99.90;;;;;;5077887;28;20384;-79
2023/05/22 00:39:51;;;;;;;11.80;10.10;;;14.00;99.90;;;;;;5078349;28;20474;-78
2023/05/22 00:42:17;;;;;;;10.27;9.27;;;14.00;99.90;;;;;;5077845;28;20382;-79
2023/05/22 00:44:43;;;;;;;12.00;10.80;;;14.00;99.90;;;;;;5080113;28;20390;-79
2023/05/22 00:47:08;;;;;;;12.23;10.88;;;14.00;99.90;;;;;;5079725;28;20450;-79
2023/05/22 00:49:34;;;;;;;11.45;10.25;;;14.00;99.90;;;;;;5094573;28;20382;-79
2023/05/22 00:52:00;;;;;;;11.35;10.25;;;14.10;99.90;;;;;;5057976;28;20408;-79
2023/05/22 00:54:27;;;;;;;10.57;9.57;;;14.10;99.90;;;;;;5055246;28;20392;-79
2023/05/22 00:56:52;;;;;;;11.32;10.13;;;13.90;99.90;;;;;;5071716;28;20388;-79
2023/05/22 00:59:18;;;;;;;13.38;12.07;;;13.90;99.90;;;;;;5073943;28;20396;-79
2023/05/22 01:01:44;;;;;;;12.50;11.30;;;13.90;99.90;;;;;;5093601;28;20402;-79
2023/05/22 01:04:11;;;;;;;12.77;11.40;;;13.90;99.90;;;;;;5088725;28;20767;-79
2023/05/22 01:06:37;;;;;;;11.80;10.70;;;14.00;99.90;;;;;;5053403;28;20407;-79
2023/05/22 01:09:03;;;;;;;11.85;10.65;;;14.00;99.90;;;;;;5083074;28;20394;-79
2023/05/22 01:11:54;;;;;;;11.63;10.43;;;14.00;99.90;;;;;;5072816;28;20442;-79
2023/05/22 01:14:34;;;;;;;11.73;10.55;;;13.90;99.90;;;;;;5092735;28;20382;-79
2023/05/22 01:17:27;;;;;;;10.63;9.63;;;13.90;99.90;;;;;;5073529;28;20397;-79
2023/05/22 01:20:14;;;;;;;13.10;11.80;;;13.80;99.90;;;;;;5069648;28;20457;-79
2023/05/22 01:22:59;;;;;;;11.30;10.15;;;13.80;99.90;;;;;;5075946;28;20458;-79
2023/05/22 01:25:33;;;;;;;11.80;10.60;;;13.80;99.90;;;;;;5075464;28;20379;-79
2023/05/22 01:28:23;;;;;;;12.38;11.05;;;13.80;99.90;;;;;;5058376;28;20398;-79
2023/05/22 01:30:54;;;;;;;11.65;10.55;;;13.80;99.90;;;;;;5076976;28;20399;-79
2023/05/22 01:33:24;;;;;;;11.63;10.52;;;13.80;99.90;;;;;;5077393;28;20403;-79
2023/05/22 01:35:54;;;;;;;11.98;10.32;;;13.80;99.90;;;;;;5073263;28;20493;-80
2023/05/22 01:38:20;;;;;;;12.35;10.90;;;13.70;99.90;;;;;;5097945;28;20399;-80
2023/05/22 01:40:47;;;;;;;11.15;9.95;;;13.70;99.90;;;;;;5081296;28;20948;-81
2023/05/22 01:43:16;;;;;;;12.63;11.30;;;13.80;99.90;;;;;;5097323;28;20386;-80
2023/05/22 01:45:41;;;;;;;11.73;10.52;;;13.80;99.90;;;;;;5095536;28;20405;-79
2023/05/22 01:48:07;;;;;;;11.60;10.40;;;13.80;99.90;;;;;;5078265;28;20435;-79
2023/05/22 01:50:33;;;;;;;12.00;10.90;;;13.90;99.90;;;;;;5096350;28;20484;-78
2023/05/22 01:53:07;;;;;;;12.20;11.10;;;13.80;99.90;;;;;;5091168;28;20434;-79
2023/05/22 01:55:41;;;;;;;11.98;10.70;;;13.90;99.90;;;;;;5057200;28;20739;-78
2023/05/22 01:58:25;;;;;;;12.27;11.07;;;13.90;99.90;;;;;;5076249;28;20376;-78
2023/05/22 02:00:54;;;;;;;11.45;10.35;;;13.90;99.90;;;;;;5057875;28;20379;-79
2023/05/22 02:03:23;;;;;;;11.43;10.38;;;13.90;99.90;;;;;;5057975;28;20400;-78
2023/05/22 02:05:53;;;;;;;11.93;10.70;;;13.90;99.90;;;;;;5093475;28;20887;-79
2023/05/22 02:08:21;;;;;;;11.27;10.18;;;13.90;99.90;;;;;;5077625;28;21005;-78
2023/05/22 02:10:48;;;;;;;11.05;9.93;;;14.00;99.90;;;;;;5078228;28;20386;-79
2023/05/22 02:13:14;;;;;;;11.80;10.60;;;14.00;99.90;;;;;;5076929;28;20477;-78
2023/05/22 02:15:43;;;;;;;10.60;9.60;;;13.90;99.90;;;;;;5093979;28;20515;-78
2023/05/22 02:18:11;;;;;;;11.02;10.02;;;13.90;99.90;;;;;;5095285;28;20717;-78
2023/05/22 02:20:37;;;;;;;11.20;10.10;;;14.00;99.90;;;;;;5076956;28;20461;-78
2023/05/22 02:23:02;;;;;;;10.17;9.27;;;14.00;99.90;;;;;;5094866;28;20418;-78
2023/05/22 02:25:28;;;;;;;11.60;10.40;;;13.90;99.90;;;;;;5094482;28;20386;-78
2023/05/22 02:27:53;;;;;;;11.38;10.18;;;13.90;99.90;;;;;;5090032;28;20424;-78
2023/05/22 02:30:19;;;;;;;11.73;10.60;;;13.90;99.90;;;;;;5094457;28;20763;-78
2023/05/22 02:32:44;;;;;;;10.67;9.57;;;13.90;99.90;;;;;;5076830;28;20397;-79
2023/05/22 02:35:10;;;;;;;11.27;10.18;;;13.90;99.90;;;;;;5087266;28;20890;-78
2023/05/22 02:37:36;;;;;;;11.70;10.60;;;13.90;99.90;;;;;;5094252;28;20935;-78
2023/05/22 02:40:04;;;;;;;12.60;10.93;;;13.90;99.90;;;;;;5094564;28;20378;-78
2023/05/22 02:42:30;;;;;;;11.15;10.05;;;13.90;99.90;;;;;;5075609;28;20389;-78
2023/05/22 02:44:56;;;;;;;12.02;10.82;;;13.90;99.90;;;;;;5085454;28;20468;-78
2023/05/22 02:47:21;;;;;;;12.17;10.87;;;13.90;99.90;;;;;;5074094;28;20475;-78
2023/05/22 02:49:47;;;;;;;12.18;10.80;;;13.90;99.90;;;;;;5074779;28;20387;-78
2023/05/22 02:52:12;;;;;;;11.17;9.93;;;13.90;99.90;;;;;;5074538;28;20396;-78
2023/05/22 02:54:38;;;;;;;10.55;9.55;;;13.90;99.90;;;;;;5087583;28;20880;-79
2023/05/22 02:57:04;;;;;;;11.10;10.00;;;13.90;99.90;;;;;;5094232;28;20378;-79
2023/05/22 02:59:30;;;;;;;11.10;9.90;;;13.90;99.90;;;;;;5092308;28;20378;-78
2023/05/22 03:01:56;;;;;;;11.35;10.35;;;14.00;99.90;;;;;;5074197;28;20376;-79
2023/05/22 03:04:22;;;;;;;10.48;9.48;;;14.00;99.90;;;;;;5080072;28;20431;-79
2023/05/22 03:06:49;;;;;;;11.00;9.70;;;13.90;99.90;;;;;;5075243;28;20464;-79
2023/05/22 03:09:15;;;;;;;10.70;9.60;;;13.90;99.90;;;;;;5094405;28;20396;-79
2023/05/22 03:11:41;;;;;;;11.20;10.10;;;13.90;99.90;;;;;;5056257;28;20815;-79
2023/05/22 03:14:06;;;;;;;10.87;9.87;;;13.90;99.90;;;;;;5092027;28;20434;-78
2023/05/22 03:16:33;;;;;;;12.13;10.30;;;13.90;99.90;;;;;;5075713;28;20922;-78
2023/05/22 03:19:11;;;;;;;11.90;10.40;;;14.00;99.90;;;;;;5094537;28;20805;-79
2023/05/22 03:21:37;;;;;;;10.43;9.05;;;14.00;99.90;;;;;;5094164;28;20393;-79
2023/05/22 03:24:03;;;;;;;10.35;9.35;;;13.90;99.90;;;;;;5074881;28;20397;-79
2023/05/22 03:26:29;;;;;;;11.38;10.27;;;14.00;99.90;;;;;;5054800;28;20383;-79
2023/05/22 03:28:55;;;;;;;11.50;10.10;;;14.00;99.90;;;;;;5073635;28;20460;-79
2023/05/22 03:31:21;;;;;;;12.00;9.82;;;14.00;99.90;;;;;;5074357;28;20456;-79
2023/05/22 03:33:47;;;;;;;10.65;9.43;;;14.10;99.90;;;;;;5074531;28;20392;-79
2023/05/22 03:36:12;;;;;;;10.80;9.67;;;14.10;99.90;;;;;;5078147;28;20445;-79
2023/05/22 03:38:38;;;;;;;10.52;9.68;;;14.10;99.90;;;;;;5090678;28;20404;-79
2023/05/22 03:41:03;;;;;;;10.57;9.57;;;14.10;99.90;;;;;;5094132;28;20922;-79
2023/05/22 03:43:29;;;;;;;10.40;9.40;;;14.10;99.90;;;;;;5094258;28;20392;-79
2023/05/22 03:45:55;;;;;;;10.88;9.85;;;14.10;99.90;;;;;;5092668;28;20561;-79
2023/05/22 03:48:20;;;;;;;11.00;9.90;;;14.00;99.90;;;;;;5093679;28;20402;-79
2023/05/22 03:50:46;;;;;;;11.47;10.33;;;14.10;99.90;;;;;;5067332;28;20392;-79
2023/05/22 03:53:11;;;;;;;11.40;10.33;;;14.10;99.90;;;;;;5055708;28;20396;-79
2023/05/22 03:55:37;;;;;;;12.35;10.15;;;14.00;99.90;;;;;;5055034;28;20380;-79
2023/05/22 03:58:02;;;;;;;11.23;10.10;;;14.10;99.90;;;;;;5073479;28;20874;-79
2023/05/22 04:00:28;;;;;;;11.00;10.00;;;14.10;99.90;;;;;;5055373;28;20422;-79
2023/05/22 04:02:57;;;;;;;11.27;10.18;;;14.10;99.90;;;;;;5055456;28;20434;-79
2023/05/22 04:05:22;;;;;;;10.10;9.10;;;14.10;99.90;;;;;;5059089;28;20822;-79
2023/05/22 04:07:48;;;;;;;11.68;10.57;;;14.10;99.90;;;;;;5055109;28;20434;-79
2023/05/22 04:10:14;;;;;;;10.50;9.50;;;14.20;99.90;;;;;;5073648;28;20383;-79
2023/05/22 04:12:39;;;;;;;11.37;9.80;;;14.10;99.90;;;;;;5055780;28;20406;-79
2023/05/22 04:15:06;;;;;;;12.50;10.73;;;14.10;99.90;;;;;;5055236;28;20400;-79
2023/05/22 04:17:32;;;;;;;11.03;9.87;;;14.10;99.90;;;;;;5072364;28;20406;-79
2023/05/22 04:19:59;;;;;;;11.23;10.13;;;14.10;99.90;;;;;;5073818;28;20380;-79
2023/05/22 04:22:26;;;;;;;11.45;10.35;;;14.10;99.90;;;;;;5067954;28;20895;-79
2023/05/22 04:24:52;;;;;;;11.63;10.32;;;14.10;99.90;;;;;;5075685;28;20389;-79
2023/05/22 04:27:20;;;;;;;11.93;10.57;;;14.10;99.90;;;;;;5093160;28;20374;-79
2023/05/22 04:29:46;;;;;;;12.63;9.73;;;14.10;99.90;;;;;;5071721;28;20425;-79
2023/05/22 04:32:16;;;;;;;11.43;10.13;;;14.20;99.90;;;;;;5072400;28;20398;-79
2023/05/22 04:34:43;;;;;;;11.18;9.93;;;14.20;99.90;;;;;;5068441;28;20394;-79
2023/05/22 04:37:09;;;;;;;11.00;9.80;;;14.20;99.90;;;;;;5093119;28;20382;-79
2023/05/22 04:39:34;;;;;;;10.90;9.80;;;14.30;99.90;;;;;;5081436;28;20794;-79
2023/05/22 04:42:04;;;;;;;11.80;10.47;;;14.30;99.90;;;;;;5074230;28;20388;-79
2023/05/22 04:44:33;;;;;;;10.70;9.70;;;14.30;99.90;;;;;;5073882;28;20379;-79
2023/05/22 04:47:00;;;;;;;10.32;9.23;;;14.40;99.90;;;;;;5073276;28;20503;-79
2023/05/22 04:49:27;;;;;;;11.05;9.95;;;14.40;99.90;;;;;;5055380;28;20403;-79
2023/05/22 04:51:54;;;;;;;11.00;9.70;;;14.50;99.90;;;;;;5071127;28;20386;-79
2023/05/22 04:54:19;;;;;;;10.30;9.30;;;14.60;99.90;;;;;;5091743;28;20404;-79
2023/05/22 04:56:45;;;;;;;10.90;9.80;;;14.60;99.90;;;;;;5093589;28;20856;-79
2023/05/22 04:59:15;;;;;;;10.23;9.07;;;14.70;99.90;;;;;;5090660;28;20381;-79
2023/05/22 05:01:44;;;;;;;11.43;9.52;;;14.80;99.90;;;;;;5084402;28;20414;-79
2023/05/22 05:04:09;;;;;;;10.50;9.40;;;14.90;99.90;;;;;;5092250;28;20385;-78
2023/05/22 05:06:36;;;;;;;10.18;9.18;;;14.90;99.90;;;;;;5073341;28;20408;-78
2023/05/22 05:09:05;;;;;;;10.68;9.68;;;14.90;99.90;;;;;;5081874;28;20460;-78
2023/05/22 05:11:30;;;;;;;10.50;9.50;;;14.90;99.90;;;;;;5071543;28;20388;-78
2023/05/22 05:13:56;;;;;;;10.90;9.80;;;15.00;99.90;;;;;;5053392;28;20988;-78
2023/05/22 05:16:23;;;;;;;10.70;9.80;;;15.10;99.90;;;;;;5070187;28;20379;-78
2023/05/22 05:18:50;;;;;;;10.38;9.40;;;15.10;99.90;;;;;;5072227;28;20450;-77
2023/05/22 05:21:16;;;;;;;10.67;9.67;;;15.20;99.90;;;;;;5071329;28;20411;-78
2023/05/22 05:23:41;;;;;;;10.30;9.30;;;15.30;99.90;;;;;;5064527;28;20488;-78
2023/05/22 05:26:07;;;;;;;10.23;9.00;;;15.30;99.90;;;;;;5072516;28;20948;-80
2023/05/22 05:28:32;;;;;;;9.40;8.60;;;15.50;99.90;;;;;;5075589;28;21076;-80
2023/05/22 05:30:58;;;;;;;10.40;8.60;;;15.50;99.90;;;;;;5091164;28;20476;-80
2023/05/22 05:33:24;;;;;;;9.50;8.60;;;15.60;99.90;;;;;;5093427;28;20787;-80
2023/05/22 05:35:51;;;;;;;9.52;8.73;;;15.70;99.90;;;;;;5087503;28;20763;-80
2023/05/22 05:38:17;;;;;;;9.55;8.35;;;15.80;99.90;;;;;;5078441;28;20383;-80
2023/05/22 05:40:43;;;;;;;9.10;8.30;;;15.90;99.90;;;;;;5058212;28;20877;-80
2023/05/22 05:43:09;;;;;;;10.63;9.60;;;16.00;99.90;;;;;;5072811;28;20379;-80
2023/05/22 05:45:35;;;;;;;9.10;8.30;;;16.00;99.90;;;;;;5054696;28;20418;-80
2023/05/22 05:48:00;;;;;;;9.50;8.60;;;16.10;99.90;;;;;;5072213;28;20862;-80
2023/05/22 05:50:26;;;;;;;9.13;8.10;;;16.10;99.90;;;;;;5072450;28;20395;-80
2023/05/22 05:52:51;;;;;;;9.17;8.27;;;16.10;99.90;;;;;;5072612;28;20404;-80
2023/05/22 05:55:17;;;;;;;9.15;8.35;;;16.20;99.90;;;;;;5080992;28;20392;-80
2023/05/22 05:57:42;;;;;;;9.68;8.70;;;16.30;99.90;;;;;;5075224;28;20382;-80
2023/05/22 06:00:10;;;;;;;8.90;8.00;;;16.40;99.90;;;;;;5093784;28;20389;-80
2023/05/22 06:02:36;;;;;;;8.48;7.78;;;16.40;99.90;;;;;;5094075;28;20450;-80
2023/05/22 06:05:04;;;;;;;8.83;8.03;;;16.50;99.90;;;;;;5064870;28;20400;-80
2023/05/22 06:07:30;;;;;;;8.55;7.80;;;16.60;99.90;;;;;;5077685;28;20481;-80
2023/05/22 06:09:57;;;;;;;9.00;8.20;;;16.70;99.90;;;;;;5060824;28;20419;-80
2023/05/22 06:12:23;;;;;;;9.43;8.50;;;16.80;99.90;;;;;;5079848;28;20404;-80
2023/05/22 06:14:49;;;;;;;8.77;7.88;;;16.80;99.90;;;;;;5058597;28;20912;-80
2023/05/22 06:17:15;;;;;;;9.27;8.40;;;16.90;99.90;;;;;;5077044;28;20391;-80
2023/05/22 06:19:41;;;;;;;9.50;8.70;;;17.00;99.90;;;;;;5060931;28;20429;-80
2023/05/22 06:22:06;;;;;;;8.93;8.02;;;17.10;99.90;;;;;;5060319;28;20441;-80
2023/05/22 06:24:32;;;;;;;8.90;8.00;;;17.20;99.90;;;;;;5082031;28;20392;-80
2023/05/22 06:26:58;;;;;;;7.85;7.15;;;17.20;99.90;;;;;;5097489;28;20407;-80
2023/05/22 06:29:24;;;;;;;7.80;7.10;;;17.20;99.90;;;;;;5080047;28;20911;-80
2023/05/22 06:31:49;;;;;;;9.30;7.87;;;17.30;99.90;;;;;;5097653;28;20378;-80
2023/05/22 06:34:15;;;;;;;8.10;7.30;;;17.40;99.90;;;;;;5096574;28;20410;-80
2023/05/22 06:36:41;;;;;;;7.50;6.90;;;17.50;99.90;;;;;;5088783;28;20402;-80
2023/05/22 06:39:07;;;;;;;7.47;6.78;;;17.50;99.90;;;;;;5076017;28;20391;-80
2023/05/22 06:41:34;;;;;;;7.88;7.18;;;17.60;99.90;;;;;;5075837;28;21083;-80
2023/05/22 06:44:01;;;;;;;7.90;7.10;;;17.70;99.90;;;;;;5077345;28;20384;-80
2023/05/22 06:46:27;;;;;;;8.10;7.30;;;17.80;99.90;;;;;;5056908;28;20407;-81
2023/05/22 06:48:53;;;;;;;7.88;7.18;;;17.80;99.90;;;;;;5075305;28;20900;-80
2023/05/22 06:51:19;;;;;;;7.88;7.18;;;17.90;99.90;;;;;;5058779;28;20391;-81
2023/05/22 06:53:45;;;;;;;7.97;7.18;;;17.80;99.90;;;;;;5074195;28;20406;-80
2023/05/22 06:56:11;;;;;;;7.70;7.00;;;17.90;99.90;;;;;;5094014;28;20839;-80
2023/05/22 06:58:36;;;;;;;7.60;7.00;;;18.00;99.90;;;;;;5095255;28;20382;-80
2023/05/22 07:01:02;;;;;;;7.47;6.87;;;18.00;99.90;;;;;;5094802;28;20465;-80
2023/05/22 07:03:27;;;;;;;7.60;6.90;;;18.00;99.90;;;;;;5094950;28;20386;-80
2023/05/22 07:05:55;;;;;;;7.88;7.20;;;18.00;99.90;;;;;;5075844;28;20392;-80
2023/05/22 07:08:21;;;;;;;7.90;7.20;;;18.10;99.90;;;;;;5057373;28;20387;-81
2023/05/22 07:10:46;;;;;;;7.60;7.00;;;18.20;99.90;;;;;;5055328;28;20419;-80
2023/05/22 07:13:12;;;;;;;7.00;6.30;;;18.30;99.90;;;;;;5073818;28;20797;-80
2023/05/22 07:15:38;;;;;;;7.95;6.50;;;18.30;99.90;;;;;;5055654;28;20388;-80
2023/05/22 07:18:03;;;;;;;7.50;6.90;;;18.40;99.90;;;;;;5055594;28;20407;-81
2023/05/22 07:20:29;;;;;;;7.23;6.53;;;18.40;99.90;;;;;;5075850;28;20754;-80
2023/05/22 07:22:54;;;;;;;7.30;6.68;;;18.30;99.90;;;;;;5057965;28;20416;-81
2023/05/22 07:25:20;;;;;;;7.20;6.50;;;18.40;99.90;;;;;;5056040;28;20384;-80
2023/05/22 07:27:45;;;;;;;6.60;6.00;;;18.40;99.90;;;;;;5056117;28;20392;-81
2023/05/22 07:30:11;;;;;;;6.97;6.37;;;18.50;99.90;;;;;;5055797;28;20388;-80
2023/05/22 07:32:37;;;;;;;6.72;6.13;;;18.60;99.90;;;;;;5060828;28;20477;-80
2023/05/22 07:35:03;;;;;;;8.20;6.35;;;18.70;99.90;;;;;;5069501;28;20467;-80
2023/05/22 07:37:30;;;;;;;8.07;7.28;;;18.80;99.90;;;;;;5081935;28;20502;-80
2023/05/22 07:39:56;;;;;;;7.03;6.32;;;18.90;99.90;;;;;;5083771;28;20468;-80
2023/05/22 07:42:22;;;;;;;6.97;6.28;;;18.90;99.90;;;;;;5083466;28;20864;-80
2023/05/22 07:44:47;;;;;;;6.80;6.30;;;19.10;99.90;;;;;;5029787;28;1731067;-80
2023/05/22 07:47:13;;;;;;;6.60;6.00;;;19.20;99.90;;;;;;5078863;28;20376;-81
2023/05/22 07:49:39;;;;;;;6.67;6.07;;;19.20;99.90;;;;;;5108217;28;20386;-80
2023/05/22 07:52:04;;;;;;;6.90;6.07;;;19.20;99.90;;;;;;5071536;28;20435;-80
2023/05/22 07:54:30;;;;;;;6.93;6.10;;;19.40;99.90;;;;;;5097380;28;20380;-80
2023/05/22 07:56:56;;;;;;;6.40;5.80;;;19.60;99.90;;;;;;5086790;28;20390;-79
2023/05/22 07:59:23;;;;;;;6.53;5.70;;;19.60;99.90;;;;;;5116903;28;20722;-80
2023/05/22 08:01:49;;;;;;;7.78;7.07;;;19.90;99.90;;;;;;5083897;28;20376;-81
2023/05/22 08:04:14;;;;;;;6.57;6.07;;;19.80;99.90;;;;;;5079069;28;20466;-81
2023/05/22 08:06:42;;;;;;;6.35;5.75;;;19.80;99.90;;;;;;5075009;28;20376;-80
2023/05/22 08:09:08;;;;;;;6.55;5.95;;;20.00;99.90;;;;;;5087972;28;20451;-80
2023/05/22 08:11:36;;;;;;;7.73;6.63;;;20.10;99.90;;;;;;5092049;28;20807;-80
2023/05/22 08:14:02;;;;;;;6.85;6.25;;;20.10;99.90;;;;;;5097466;28;20404;-80
2023/05/22 08:16:28;;;;;;;6.70;6.00;;;20.30;99.90;;;;;;5092346;28;20443;-80
2023/05/22 08:18:54;;;;;;;6.80;6.20;;;20.20;99.90;;;;;;5083488;28;20882;-80
2023/05/22 08:21:19;;;;;;;6.88;6.28;;;20.20;99.90;;;;;;5114303;28;20383;-80
2023/05/22 08:23:45;;;;;;;7.00;6.40;;;20.50;99.90;;;;;;5095832;28;20373;-80
2023/05/22 08:26:10;;;;;;;8.60;6.30;;;20.40;99.90;;;;;;5114124;28;20376;-80
2023/05/22 08:28:40;;;;;;;7.20;6.50;;;20.60;99.90;;;;;;5106426;28;20621;-79
2023/05/22 08:31:06;;;;;;;7.03;6.32;;;20.70;99.90;;;;;;5128711;28;20372;-79
2023/05/22 08:33:31;;;;;;;6.70;6.10;;;20.50;99.90;;;;;;5126676;28;20450;-78
2023/05/22 08:35:57;;;;;;;7.70;6.90;;;20.70;99.90;;;;;;5108809;28;20380;-80
2023/05/22 08:38:22;;;;;;;6.80;6.10;;;20.80;99.90;;;;;;5129091;28;20373;-79
2023/05/22 08:40:48;;;;;;;7.87;6.10;;;20.80;99.90;;;;;;5110826;28;20384;-79
2023/05/22 08:43:14;;;;;;;6.68;6.00;;;20.70;99.90;;;;;;5106013;28;20410;-81
2023/05/22 08:45:41;;;;;;;7.00;6.40;;;20.60;99.90;;;;;;5095079;28;20461;-80
2023/05/22 08:48:11;;;;;;;6.53;5.88;;;20.70;99.90;;;;;;5114171;28;20384;-80
2023/05/22 08:50:41;;;;;;;6.97;6.28;;;20.80;99.90;;;;;;5114421;28;20931;-80
2023/05/22 08:53:07;;;;;;;6.43;5.43;;;20.80;99.90;;;;;;5095481;28;20411;-80
2023/05/22 08:55:33;;;;;;;6.75;6.15;;;20.90;99.90;;;;;;5113847;28;20811;-80
2023/05/22 08:58:00;;;;;;;7.75;6.10;;;21.20;99.90;;;;;;5114480;28;20448;-80
2023/05/22 09:00:26;;;;;;;5.90;5.30;;;21.10;99.90;;;;;;5114258;28;20380;-80
2023/05/22 09:02:52;;;;;;;6.10;5.50;;;21.30;99.90;;;;;;5116070;28;20716;-79
2023/05/22 09:05:17;;;;;;;6.47;5.70;;;21.40;99.90;;;;;;5081630;28;20374;-80
2023/05/22 09:07:43;;;;;;;6.17;5.67;;;21.40;99.90;;;;;;5076174;28;20378;-80
2023/05/22 09:10:09;;;;;;;7.80;5.30;;;21.30;99.90;;;;;;5092243;28;20405;-80
2023/05/22 09:12:35;;;;;;;7.03;5.60;;;21.20;99.90;;;;;;5074688;28;20884;-80
2023/05/22 09:15:10;;;;;;;6.47;5.65;;;21.40;99.90;;;;;;5074813;28;20505;-80
2023/05/22 09:17:39;;;;;;;6.22;5.60;;;21.40;99.90;;;;;;5074311;28;20461;-80
2023/05/22 09:20:05;;;;;;;6.50;5.90;;;21.50;99.90;;;;;;5075418;28;20390;-81
2023/05/22 09:22:37;;;;;;;6.53;5.97;;;21.50;99.90;;;;;;5093656;28;20524;-80
2023/05/22 09:25:02;;;;;;;6.43;5.82;;;21.40;99.90;;;;;;5075408;28;20392;-80
2023/05/22 09:27:28;;;;;;;6.80;5.90;;;21.40;99.90;;;;;;5074211;28;20413;-80
2023/05/22 09:29:55;;;;;;;7.93;5.70;;;21.50;99.90;;;;;;5093466;28;20756;-79
2023/05/22 09:32:21;;;;;;;6.68;6.07;;;21.60;99.90;;;;;;5075045;28;20440;-79
2023/05/22 09:34:47;;;;;;;6.40;5.80;;;21.70;99.90;;;;;;5092383;28;20907;-80
2023/05/22 09:37:13;;;;;;;6.40;5.80;;;22.00;99.90;;;;;;5091804;28;20370;-80
2023/05/22 09:39:40;;;;;;;6.93;6.22;;;22.00;99.90;;;;;;5075379;28;20386;-80
2023/05/22 09:42:08;;;;;;;6.38;5.85;;;22.00;99.90;;;;;;5079454;28;20381;-80
2023/05/22 09:44:34;;;;;;;6.80;6.20;;;22.20;99.90;;;;;;5097964;28;20404;-80
2023/05/22 09:47:00;;;;;;;6.30;5.70;;;22.10;99.90;;;;;;5096124;28;20394;-80
2023/05/22 09:49:25;;;;;;;6.50;6.00;;;22.10;99.90;;;;;;5078453;28;20440;-80
2023/05/22 09:51:53;;;;;;;7.20;6.50;;;22.40;99.90;;;;;;5079343;28;20381;-79
2023/05/22 09:54:20;;;;;;;6.70;6.00;;;22.30;99.90;;;;;;5101028;28;20768;-79
2023/05/22 09:56:48;;;;;;;8.30;6.60;;;22.30;99.90;;;;;;5087189;28;20374;-80
2023/05/22 09:59:19;;;;;;;7.18;6.28;;;22.30;99.90;;;;;;5078307;28;20425;-80
2023/05/22 10:01:46;;;;;;;7.00;6.30;;;22.40;99.90;;;;;;5096906;28;20446;-80
2023/05/22 10:04:15;;;;;;;6.82;6.32;;;22.50;99.90;;;;;;5091766;28;20398;-80
2023/05/22 10:06:43;;;;;;;7.07;6.38;;;22.50;99.90;;;;;;5076196;28;20406;-79
2023/05/22 10:09:14;;;;;;;7.43;6.82;;;22.50;99.90;;;;;;5077024;28;20410;-80
2023/05/22 10:11:40;;;;;;;7.78;6.97;;;22.50;99.90;;;;;;5075065;28;20901;-79
2023/05/22 10:14:07;;;;;;;7.50;6.80;;;22.70;99.90;;;;;;5075966;28;20399;-80
2023/05/22 10:16:37;;;;;;;7.53;6.82;;;22.80;99.90;;;;;;5058764;28;20462;-79
2023/05/22 10:19:03;;;;;;;7.70;7.00;;;22.90;99.90;;;;;;5076457;28;20384;-80
2023/05/22 10:21:30;;;;;;;8.00;7.20;;;22.90;99.90;;;;;;5075598;28;20384;-79
2023/05/22 10:23:58;;;;;;;8.32;7.55;;;23.10;99.90;;;;;;5076356;28;20437;-80
2023/05/22 10:26:24;;;;;;;8.32;7.57;;;23.10;99.90;;;;;;5074673;28;20484;-80
2023/05/22 10:28:59;;;;;;;7.60;6.90;;;23.00;99.90;;;;;;5057609;28;20379;-80
2023/05/22 10:31:41;;;;;;;8.13;7.40;;;22.90;99.90;;;;;;5075764;28;20380;-79
2023/05/22 10:34:11;;;;;;;8.00;7.30;;;23.00;99.90;;;;;;5076296;28;20395;-80
2023/05/22 10:36:55;;;;;;;8.70;7.90;;;23.00;99.90;;;;;;5074894;28;20376;-80
2023/05/22 10:39:41;;;;;;;8.50;7.60;;;23.20;99.90;;;;;;5057435;28;20947;-79
2023/05/22 10:42:12;;;;;;;7.97;7.33;;;23.20;99.90;;;;;;5057585;28;20395;-80
2023/05/22 10:44:37;;;;;;;8.70;7.90;;;23.10;99.90;;;;;;5056878;28;20391;-80
2023/05/22 10:47:10;;;;;;;8.80;7.90;;;23.20;99.90;;;;;;5110189;23;20931;-83
2023/05/22 10:49:36;;;;;;;9.00;8.20;;;23.20;99.90;;;;;;5098466;28;20371;-82
2023/05/22 10:52:02;;;;;;;11.00;8.20;;;23.30;99.90;;;;;;5081166;28;20370;-82
2023/05/22 10:54:44;;;;;;;8.40;7.70;;;23.30;99.90;;;;;;5097778;28;20382;-83
2023/05/22 10:57:14;;;;;;;8.68;7.88;;;23.60;99.90;;;;;;5097203;28;20397;-84
2023/05/22 10:59:41;;;;;;;8.90;8.10;;;23.70;99.90;;;;;;5097492;28;20386;-83
2023/05/22 11:02:21;;;;;;;8.75;7.85;;;23.80;99.90;;;;;;5097214;28;20393;-84
2023/05/22 11:04:47;;;;;;;8.90;8.10;;;23.70;99.90;;;;;;5098000;28;20378;-83
2023/05/22 11:07:14;;;;;;;8.43;7.72;;;23.90;99.90;;;;;;5096791;28;20414;-84
2023/05/22 11:09:42;;;;;;;8.82;8.02;;;24.10;99.90;;;;;;5079056;28;20406;-84
2023/05/22 11:12:27;;;;;;;9.10;8.30;;;24.40;99.90;;;;;;5079921;28;20438;-85
2023/05/22 11:14:54;;;;;;;9.05;8.25;;;24.50;99.90;;;;;;5076375;28;20413;-84
2023/05/22 11:17:22;;;;;;;8.65;7.85;;;24.30;99.90;;;;;;5072100;28;20387;-85
2023/05/22 11:20:03;;;;;;;8.43;7.72;;;24.10;99.90;;;;;;5078212;28;20445;-85
2023/05/22 11:22:37;;;;;;;8.07;7.38;;;23.60;99.90;;;;;;5090825;28;20426;-85
2023/05/22 11:25:06;;;;;;;8.20;7.50;;;23.40;99.90;;;;;;5081465;28;20390;-85
2023/05/22 11:27:33;;;;;;;9.90;7.43;;;23.30;99.90;;;;;;5079047;28;20721;-85
2023/05/22 11:30:00;;;;;;;8.18;7.38;;;23.50;99.90;;;;;;5080461;28;20469;-84
2023/05/22 11:32:26;;;;;;;7.97;7.20;;;23.20;99.90;;;;;;5075230;28;20915;-85
2023/05/22 11:34:52;;;;;;;7.32;6.63;;;23.20;99.90;;;;;;5067839;28;20391;-83
2023/05/22 11:37:18;;;;;;;8.67;7.87;;;23.20;99.90;;;;;;5077023;28;20387;-84
2023/05/22 11:39:57;;;;;;;7.50;6.80;;;23.20;99.90;;;;;;5095860;28;20382;-83
2023/05/22 11:42:23;;;;;;;7.63;7.10;;;23.10;99.90;;;;;;5078522;28;20386;-85
2023/05/22 11:44:49;;;;;;;7.90;7.20;;;23.00;99.90;;;;;;5112567;28;20378;-83
2023/05/22 11:47:15;;;;;;;9.95;8.65;;;23.00;99.90;;;;;;5090981;28;20434;-85
2023/05/22 11:49:41;;;;;;;10.30;9.30;;;22.90;99.90;;;;;;5098881;28;20382;-85
2023/05/22 11:52:08;;;;;;;7.60;6.90;;;22.70;99.90;;;;;;5078794;28;20873;-85
2023/05/22 11:54:34;;;;;;;8.87;8.17;;;22.80;99.90;;;;;;5060659;28;20384;-85
2023/05/22 11:57:06;;;;;;;7.88;7.18;;;22.70;99.90;;;;;;5059404;28;20799;-85
2023/05/22 11:59:32;;;;;;;7.70;7.00;;;22.50;99.90;;;;;;5082044;28;20452;-84
2023/05/22 12:01:58;;;;;;;8.68;7.93;;;22.40;99.90;;;;;;5088729;28;20389;-85
2023/05/22 12:04:24;;;;;;;7.55;6.85;;;22.30;99.90;;;;;;5109333;28;20814;-83
2023/05/22 12:06:50;;;;;;;8.95;8.15;;;22.20;99.90;;;;;;5097779;28;20392;-85
2023/05/22 12:09:16;;;;;;;8.38;7.57;;;22.20;99.90;;;;;;5084233;28;20388;-86
2023/05/22 12:11:48;;;;;;;9.33;8.37;;;22.10;99.90;;;;;;5089708;28;20394;-84
2023/05/22 12:14:14;;;;;;;8.40;7.70;;;22.00;99.90;;;;;;5078973;28;20435;-83
2023/05/22 12:16:40;;;;;;;8.18;7.38;;;21.90;99.90;;;;;;5074182;28;20406;-84
2023/05/22 12:19:10;;;;;;;7.63;6.93;;;21.80;99.90;;;;;;5076365;28;20386;-85
2023/05/22 12:21:40;;;;;;;7.82;7.13;;;21.70;99.90;;;;;;5071810;28;20395;-84
2023/05/22 12:24:07;;;;;;;8.45;7.75;;;21.70;99.90;;;;;;5076379;28;20741;-85
2023/05/22 12:26:33;;;;;;;7.95;7.25;;;21.70;99.90;;;;;;5089385;28;20382;-85
2023/05/22 12:28:58;;;;;;;8.10;7.30;;;21.80;99.90;;;;;;5092699;28;20881;-84
2023/05/22 12:31:25;;;;;;;8.10;7.40;;;21.80;99.90;;;;;;5067615;28;20445;-84
2023/05/22 12:33:54;;;;;;;8.27;7.45;;;22.00;99.90;;;;;;5069556;28;20408;-84
2023/05/22 12:36:20;;;;;;;8.82;8.02;;;21.90;99.90;;;;;;5082688;28;20441;-83
2023/05/22 12:38:46;;;;;;;8.38;7.40;;;21.80;99.90;;;;;;5083304;28;20683;-83
2023/05/22 12:41:12;;;;;;;8.52;7.72;;;21.90;99.90;;;;;;5079481;28;20453;-84